Time;durP1;ratioP1;P1;durP2;ratioP2;P2;SDS_P1;SDS_P2;PMS_P1;PMS_P2;Temp;Humidity;BMP_temperature;BMP_pressure;BME280_temperature;BME280_humidity;BME280_pressure;Samples;Min_cycle;Max_cycle;Signal;HPM_P1;HPM_P2
2022/08/11 00:01:54;;;;;;;3.80;2.87;;;;;;;20.46;43.67;99714.31;4940197;28;20519;-77
2022/08/11 00:04:24;;;;;;;3.30;2.27;;;;;;;20.47;43.62;99710.66;4940682;29;20722;-75
2022/08/11 00:06:51;;;;;;;2.10;2.00;;;;;;;20.50;43.53;99712.19;4928137;29;20852;-76
2022/08/11 00:09:20;;;;;;;3.03;2.63;;;;;;;20.53;43.25;99704.72;4937423;29;20479;-76
2022/08/11 00:11:49;;;;;;;2.33;2.10;;;;;;;20.60;43.28;99709.41;4923940;29;20610;-76
2022/08/11 00:14:32;;;;;;;2.50;2.27;;;;;;;20.66;42.73;99711.47;4941210;29;20735;-76
2022/08/11 00:17:08;;;;;;;2.13;2.03;;;;;;;20.63;42.47;99711.75;4937039;29;20485;-76
2022/08/11 00:19:38;;;;;;;2.60;2.40;;;;;;;20.52;42.72;99695.00;4938266;29;20467;-76
2022/08/11 00:22:05;;;;;;;2.70;2.00;;;;;;;20.51;42.48;99701.31;4937914;29;20497;-76
2022/08/11 00:24:36;;;;;;;1.90;1.73;;;;;;;20.48;42.33;99706.16;4935793;29;20940;-76
2022/08/11 00:27:03;;;;;;;2.30;1.97;;;;;;;20.33;42.56;99697.91;4940217;29;20448;-76
2022/08/11 00:29:29;;;;;;;2.33;2.13;;;;;;;20.17;42.89;99704.00;4937509;29;20889;-76
2022/08/11 00:31:58;;;;;;;2.97;1.90;;;;;;;20.07;43.31;99705.91;4939318;29;21035;-76
2022/08/11 00:34:28;;;;;;;2.57;2.20;;;;;;;20.03;43.33;99700.03;4921344;29;20461;-76
2022/08/11 00:37:02;;;;;;;3.27;2.53;;;;;;;20.01;43.02;99706.53;4937046;29;20496;-76
2022/08/11 00:39:33;;;;;;;3.60;1.90;;;;;;;19.95;43.20;99704.47;4938562;29;20480;-76
2022/08/11 00:42:10;;;;;;;7.07;1.90;;;;;;;19.91;43.36;99708.47;4938610;29;20519;-76
2022/08/11 00:44:50;;;;;;;3.03;2.57;;;;;;;19.80;43.54;99706.88;4940916;29;20470;-76
2022/08/11 00:47:26;;;;;;;1.90;1.80;;;;;;;19.72;43.77;99709.50;4937663;29;20798;-76
2022/08/11 00:49:59;;;;;;;2.50;2.30;;;;;;;19.64;43.95;99703.06;4936188;29;20462;-76
2022/08/11 00:53:07;;;;;;;3.80;2.20;;;;;;;19.60;44.17;99711.50;4937746;29;20493;-76
2022/08/11 00:55:47;;;;;;;2.33;2.10;;;;;;;19.60;44.32;99704.34;4935770;29;20440;-76
2022/08/11 00:58:38;;;;;;;3.10;2.47;;;;;;;19.55;44.48;99697.78;4937503;29;20487;-76
2022/08/11 01:01:27;;;;;;;1.93;1.83;;;;;;;19.48;44.85;99697.59;4940073;29;20526;-76
2022/08/11 01:04:30;;;;;;;2.15;2.05;;;;;;;19.46;45.59;99704.88;4937881;29;20467;-76
2022/08/11 01:07:30;;;;;;;2.33;2.13;;;;;;;19.44;45.44;99699.72;4936868;29;20219;-76
2022/08/11 01:10:07;;;;;;;5.83;1.87;;;;;;;19.44;45.41;99701.53;4939569;29;20474;-76
2022/08/11 01:13:04;;;;;;;4.30;2.37;;;;;;;19.46;45.18;99710.22;4937729;29;20572;-76
2022/08/11 01:15:33;;;;;;;2.47;2.27;;;;;;;19.52;45.35;99706.94;4941812;29;20523;-76
2022/08/11 01:18:22;;;;;;;3.23;2.00;;;;;;;19.52;45.09;99706.09;4938558;29;20600;-76
2022/08/11 01:21:15;;;;;;;5.03;2.40;;;;;;;19.51;45.24;99710.59;4937327;29;20513;-76
2022/08/11 01:24:03;;;;;;;2.53;2.33;;;;;;;19.48;45.30;99704.75;4941180;29;20503;-76
2022/08/11 01:27:02;;;;;;;3.07;2.37;;;;;;;19.48;45.51;99705.56;4940847;29;20449;-76
2022/08/11 01:29:50;;;;;;;2.87;2.10;;;;;;;19.48;45.13;99702.09;4939889;29;20850;-76
2022/08/11 01:32:15;;;;;;;8.20;2.40;;;;;;;19.47;45.43;99706.56;4941280;29;20482;-76
2022/08/11 01:35:18;;;;;;;2.60;2.40;;;;;;;19.43;45.61;99702.53;4938529;29;20480;-76
2022/08/11 01:37:52;;;;;;;2.03;1.80;;;;;;;19.44;45.71;99714.84;4942970;29;20324;-76
2022/08/11 01:40:36;;;;;;;3.10;2.20;;;;;;;19.44;45.41;99701.53;4942042;29;20489;-77
2022/08/11 01:46:19;;;;;;;3.30;2.13;;;;;;;19.36;45.94;99698.78;4940205;29;20245;-77
2022/08/11 01:49:08;;;;;;;2.20;2.00;;;;;;;19.37;46.14;99703.16;4937754;29;21003;-76
2022/08/11 01:51:52;;;;;;;8.80;2.47;;;;;;;19.33;46.61;99704.41;4941198;29;20493;-76
2022/08/11 01:54:26;;;;;;;5.43;2.40;;;;;;;19.17;46.90;99702.44;4940760;29;20465;-76
2022/08/11 01:57:11;;;;;;;2.10;1.90;;;;;;;18.96;47.35;99703.56;4941673;29;20654;-77
2022/08/11 01:59:50;;;;;;;2.50;2.30;;;;;;;18.72;47.89;99700.56;4941357;29;20555;-76
2022/08/11 02:05:27;;;;;;;3.77;2.30;;;;;;;18.45;48.51;99704.06;4940905;29;20473;-76
2022/08/11 02:08:30;;;;;;;2.70;2.50;;;;;;;18.29;48.74;99702.00;4940801;29;20449;-76
2022/08/11 02:11:29;;;;;;;4.93;2.00;;;;;;;18.16;49.22;99698.81;4942600;29;20464;-77
2022/08/11 02:14:20;;;;;;;2.90;2.50;;;;;;;18.15;49.07;99703.31;4943169;29;20983;-77
2022/08/11 02:17:17;;;;;;;2.80;2.30;;;;;;;18.10;49.28;99705.56;4942133;29;21040;-76
2022/08/11 02:26:06;;;;;;;2.63;2.27;;;;;;;18.09;49.60;99715.34;4940624;29;20861;-77
2022/08/11 02:28:48;;;;;;;2.40;2.20;;;;;;;18.14;49.49;99712.25;4937435;29;20520;-76
2022/08/11 02:34:29;;;;;;;3.20;2.90;;;;;;;18.21;50.18;99718.69;4938181;29;20493;-76
2022/08/11 02:37:14;;;;;;;2.70;2.40;;;;;;;18.23;50.06;99718.53;4936045;29;20304;-76
2022/08/11 02:40:14;;;;;;;2.50;2.07;;;;;;;18.27;50.03;99712.78;4938216;29;20457;-76
2022/08/11 02:43:02;;;;;;;2.63;2.40;;;;;;;18.31;49.83;99711.50;4915989;29;20485;-76
2022/08/11 02:45:48;;;;;;;2.43;2.07;;;;;;;18.27;49.97;99712.78;4941656;29;20822;-77
2022/08/11 02:51:58;;;;;;;3.30;3.10;;;;;;;18.22;49.84;99708.88;4937055;29;20862;-77
2022/08/11 02:54:33;;;;;;;2.60;2.40;;;;;;;18.23;49.88;99706.09;4937653;29;20446;-76
2022/08/11 02:57:09;;;;;;;2.47;2.27;;;;;;;18.27;49.95;99701.31;4937626;29;21676;-76
2022/08/11 02:59:50;;;;;;;2.93;2.73;;;;;;;18.27;49.86;99702.13;4938562;29;20470;-77
2022/08/11 03:02:31;;;;;;;2.40;2.20;;;;;;;18.24;50.05;99707.75;4937950;29;20928;-76
2022/08/11 03:05:19;;;;;;;5.33;3.20;;;;;;;18.24;50.13;99706.91;4942328;29;20445;-76
2022/08/11 03:08:07;;;;;;;4.20;2.40;;;;;;;18.23;50.10;99703.44;4940591;29;20455;-76
2022/08/11 03:16:53;;;;;;;3.30;2.43;;;;;;;18.16;50.31;99699.66;4937924;29;20825;-77
2022/08/11 03:19:58;;;;;;;2.90;2.70;;;;;;;18.20;50.49;99694.88;4938805;29;20832;-77
2022/08/11 03:22:28;;;;;;;4.73;2.87;;;;;;;18.10;50.34;99701.06;4938498;29;20852;-76
2022/08/11 03:25:04;;;;;;;2.13;1.93;;;;;;;18.04;50.66;99701.66;4940674;29;20488;-77
2022/08/11 03:28:08;;;;;;;5.40;3.20;;;;;;;17.96;50.97;99703.31;4938943;29;20473;-77
2022/08/11 03:30:51;;;;;;;3.00;2.13;;;;;;;17.84;51.26;99700.81;4935616;29;20476;-77
2022/08/11 03:36:21;;;;;;;3.90;2.70;;;;;;;17.77;51.56;99701.50;4930881;29;20713;-77
2022/08/11 03:39:09;;;;;;;2.80;2.27;;;;;;;17.79;51.39;99705.72;4932083;29;20489;-77
2022/08/11 03:41:44;;;;;;;2.60;2.40;;;;;;;17.82;51.29;99707.25;4930011;29;20481;-77
2022/08/11 03:44:19;;;;;;;3.23;2.93;;;;;;;17.83;51.22;99712.44;4932410;29;20829;-77
2022/08/11 03:46:55;;;;;;;6.13;2.97;;;;;;;17.78;51.50;99709.34;4933462;29;20485;-77
2022/08/11 03:49:40;;;;;;;2.77;2.50;;;;;;;17.76;51.63;99705.97;4934952;29;20472;-76
2022/08/11 03:52:26;;;;;;;2.90;2.60;;;;;;;17.76;51.71;99708.63;4933991;29;20473;-76
2022/08/11 03:55:13;;;;;;;3.57;2.60;;;;;;;17.78;51.70;99713.81;4938680;29;20524;-76
2022/08/11 03:58:12;;;;;;;5.40;2.87;;;;;;;17.75;51.57;99711.44;4938201;29;20523;-77
2022/08/11 04:00:57;;;;;;;3.10;2.78;;;;;;;17.69;51.68;99710.19;4936261;29;20516;-76
2022/08/11 04:03:34;;;;;;;2.93;2.60;;;;;;;17.68;51.70;99724.44;4936862;29;20218;-77
2022/08/11 04:06:36;;;;;;;2.63;2.43;;;;;;;17.65;51.64;99714.09;4937806;29;20528;-76
2022/08/11 04:09:39;;;;;;;3.00;2.40;;;;;;;17.66;51.47;99710.47;4938081;29;20492;-76
2022/08/11 04:12:19;;;;;;;6.83;2.80;;;;;;;17.70;51.28;99714.53;4937660;29;20493;-76
2022/08/11 04:18:19;;;;;;;5.43;3.30;;;;;;;17.62;51.37;99717.03;4938968;29;20503;-76
2022/08/11 04:20:56;;;;;;;4.90;3.23;;;;;;;17.60;51.40;99713.69;4932441;29;21060;-77
2022/08/11 04:23:46;;;;;;;3.30;3.00;;;;;;;17.61;51.27;99712.72;4936805;29;20628;-76
2022/08/11 04:26:33;;;;;;;3.30;3.00;;;;;;;17.58;51.49;99715.63;4938059;29;20472;-76
2022/08/11 04:29:29;;;;;;;2.67;2.47;;;;;;;17.58;51.38;99705.88;4934651;29;20454;-77
2022/08/11 04:32:20;;;;;;;2.67;2.43;;;;;;;17.55;51.59;99716.78;4934880;29;20474;-76
2022/08/11 04:34:55;;;;;;;3.20;2.97;;;;;;;17.51;52.11;99711.88;4937491;29;20468;-77
2022/08/11 04:37:35;;;;;;;4.20;2.60;;;;;;;17.42;52.29;99710.91;4936583;29;20587;-76
2022/08/11 04:40:01;;;;;;;3.93;2.50;;;;;;;17.32;52.36;99715.34;4938228;29;20482;-76
2022/08/11 04:43:19;;;;;;;3.37;3.07;;;;;;;17.26;52.49;99714.09;4939645;29;20496;-76
2022/08/11 04:46:11;;;;;;;3.30;2.70;;;;;;;17.27;52.45;99712.28;4940591;29;20267;-77
2022/08/11 05:01:39;;;;;;;5.13;3.03;;;;;;;17.28;52.85;99720.09;4937669;29;20485;-77
2022/08/11 05:08:01;;;;;;;6.40;3.23;;;;;;;17.91;51.42;99722.38;4940075;29;20481;-76
2022/08/11 05:10:47;;;;;;;5.27;2.70;;;;;;;18.66;49.86;99728.63;4938549;29;20452;-77
2022/08/11 05:36:34;;;;;;;2.83;2.63;;;;;;;23.42;39.18;99713.22;4941816;29;20459;-77
2022/08/11 05:58:39;;;;;;;2.77;2.47;;;;;;;27.06;31.94;99697.88;4939345;29;20497;-77
2022/08/11 06:01:05;;;;;;;3.20;2.87;;;;;;;27.33;31.51;99677.22;4941796;29;20485;-77
2022/08/11 06:04:12;;;;;;;3.97;3.13;;;;;;;27.66;30.77;99684.53;4944866;29;20446;-77
2022/08/11 06:06:21;;;;;;;2.63;2.43;;;;;;;28.13;30.05;99690.75;4944802;29;20562;-77
2022/08/11 06:08:47;;;;;;;3.37;2.97;;;;;;;28.49;29.61;99686.75;4945056;29;20470;-77
2022/08/11 06:11:16;;;;;;;5.00;2.57;;;;;;;28.84;28.97;99690.78;4943517;29;20549;-77
2022/08/11 06:13:45;;;;;;;2.93;2.17;;;;;;;29.24;28.38;99681.66;4938541;29;20457;-77
2022/08/11 06:16:14;;;;;;;3.00;2.40;;;;;;;29.54;28.02;99687.28;4942728;29;20446;-76
2022/08/11 06:18:45;;;;;;;2.50;2.30;;;;;;;29.84;27.57;99681.22;4943064;29;20522;-75
2022/08/11 06:21:12;;;;;;;5.20;2.87;;;;;;;30.03;27.33;99687.53;4940204;29;20491;-76
2022/08/11 06:23:39;;;;;;;2.93;2.63;;;;;;;30.09;27.25;99683.94;4944837;29;20486;-76
2022/08/11 06:26:09;;;;;;;2.57;2.30;;;;;;;30.11;27.12;99681.81;4941494;29;21174;-76
2022/08/11 06:28:37;;;;;;;3.30;3.00;;;;;;;30.26;27.16;99674.19;4944359;29;20478;-75
2022/08/11 06:31:12;;;;;;;3.20;2.60;;;;;;;30.53;26.70;99669.31;4940186;29;20481;-76
2022/08/11 06:33:46;;;;;;;3.33;2.80;;;;;;;30.86;25.57;99674.34;4940440;29;20484;-76
2022/08/11 06:36:12;;;;;;;4.33;2.60;;;;;;;30.95;25.87;99676.78;4943763;29;20320;-76
2022/08/11 06:38:49;;;;;;;2.50;2.30;;;;;;;30.90;25.58;99674.72;4942976;29;21074;-75
2022/08/11 06:41:30;;;;;;;3.97;3.27;;;;;;;30.74;25.82;99675.34;4944480;29;20278;-76
2022/08/11 06:44:05;;;;;;;2.90;2.70;;;;;;;30.82;25.91;99673.16;4940159;29;20455;-75
2022/08/11 06:46:37;;;;;;;2.83;2.57;;;;;;;30.98;25.62;99676.31;4939063;29;20493;-75
2022/08/11 06:51:10;;;;;;;3.00;2.80;;;;;;;31.07;25.52;99673.03;4944740;29;20892;-75
2022/08/11 06:51:51;;;;;;;3.47;3.27;;;;;;;31.46;24.83;99672.69;4929723;29;20486;-76
2022/08/11 06:54:17;;;;;;;4.90;2.70;;;;;;;31.70;25.04;99674.41;4931946;29;20464;-75
2022/08/11 07:02:25;;;;;;;3.67;2.30;;;;;;;31.95;24.22;99667.97;4924258;29;20455;-76
2022/08/11 07:04:59;;;;;;;2.80;2.50;;;;;;;31.94;24.51;99671.72;4933574;29;20462;-75
2022/08/11 07:16:57;;;;;;;3.87;3.00;;;;;;;31.79;24.42;99671.34;4932040;29;20462;-76
2022/08/11 07:30:42;;;;;;;4.60;2.73;;;;;;;31.83;24.25;99657.03;4932034;29;20565;-75
2022/08/11 07:33:10;;;;;;;2.60;2.40;;;;;;;31.76;24.21;99661.78;4933648;29;20862;-76
2022/08/11 07:35:54;;;;;;;3.60;3.10;;;;;;;31.80;24.05;99662.13;4936518;29;20474;-75
2022/08/11 07:38:42;;;;;;;2.90;2.67;;;;;;;31.81;24.01;99656.47;4935287;29;21010;-76
2022/08/11 07:41:09;;;;;;;4.10;2.90;;;;;;;32.09;23.98;99663.09;4930762;29;20492;-76
2022/08/11 07:43:37;;;;;;;3.33;2.57;;;;;;;32.31;23.83;99661.41;4930159;29;20462;-76
2022/08/11 07:54:20;;;;;;;3.27;2.97;;;;;;;33.13;22.48;99656.84;4930296;29;20513;-77
2022/08/11 07:56:46;;;;;;;6.00;2.50;;;;;;;33.27;22.46;99658.19;4928991;29;20471;-77
2022/08/11 08:18:34;;;;;;;2.50;2.30;;;;;;;33.70;21.49;99648.56;4933990;29;20478;-77
2022/08/11 08:21:10;;;;;;;3.23;2.70;;;;;;;33.96;20.96;99638.88;4926764;29;20570;-77
2022/08/11 08:23:38;;;;;;;3.97;3.03;;;;;;;34.41;20.61;99632.44;4930362;29;20498;-77
2022/08/11 08:30:46;;;;;;;3.00;2.57;;;;;;;34.71;20.28;99631.19;4931350;29;20808;-77
2022/08/11 08:31:47;;;;;;;3.20;2.27;;;;;;;34.64;20.00;99633.28;4743058;29;5095215;-77
2022/08/11 08:34:14;;;;;;;3.75;2.50;;;;;;;34.31;19.82;99624.13;4928201;29;20501;-76
2022/08/11 08:36:43;;;;;;;2.67;2.47;;;;;;;34.14;19.97;99622.28;4931411;29;20217;-77
2022/08/11 08:39:10;;;;;;;3.23;2.77;;;;;;;34.07;20.36;99621.63;4921756;29;21061;-77
2022/08/11 08:41:37;;;;;;;3.10;2.90;;;;;;;34.05;20.46;99625.66;4929582;29;20648;-77
2022/08/11 08:44:07;;;;;;;4.40;2.57;;;;;;;33.93;20.50;99623.03;4928475;29;20874;-77
2022/08/11 08:46:42;;;;;;;4.03;2.53;;;;;;;33.81;20.40;99614.97;4927436;29;20466;-77
2022/08/11 08:49:13;;;;;;;2.40;2.20;;;;;;;33.71;20.31;99625.72;4928421;29;20777;-76
2022/08/11 08:51:41;;;;;;;3.03;2.23;;;;;;;33.56;20.52;99611.84;4923509;29;20570;-79
2022/08/11 08:54:11;;;;;;;2.23;2.03;;;;;;;33.37;20.63;99613.97;4929029;29;20478;-77
2022/08/11 08:56:41;;;;;;;2.73;2.53;;;;;;;33.22;20.63;99607.22;4931186;29;21023;-77
2022/08/11 08:59:09;;;;;;;3.90;2.27;;;;;;;33.21;20.76;99608.25;4930522;29;20601;-77
2022/08/11 09:01:41;;;;;;;3.80;1.90;;;;;;;33.16;20.72;99600.03;4932782;29;20839;-77
2022/08/11 09:04:07;;;;;;;4.40;2.20;;;;;;;33.18;20.47;99614.19;4931440;29;20469;-77
2022/08/11 09:06:38;;;;;;;2.80;2.60;;;;;;;33.20;20.29;99606.63;4929547;29;21033;-77
2022/08/11 09:09:07;;;;;;;3.13;2.47;;;;;;;33.16;20.51;99610.06;4930739;29;20461;-76
2022/08/11 09:14:19;;;;;;;2.50;2.30;;;;;;;33.11;20.40;99597.22;4934260;29;20498;-77
2022/08/11 09:16:46;;;;;;;2.60;1.90;;;;;;;33.28;20.64;99603.50;4934802;29;20704;-77
2022/08/11 09:19:18;;;;;;;4.57;2.27;;;;;;;33.37;19.88;99594.91;4929328;29;20509;-77
2022/08/11 09:27:21;;;;;;;2.83;1.93;;;;;;;33.62;19.13;99608.13;4927062;29;20477;-77
2022/08/11 09:29:48;;;;;;;3.90;2.50;;;;;;;33.52;19.31;99597.88;4930982;29;20471;-77
2022/08/11 09:32:18;;;;;;;2.77;2.07;;;;;;;33.41;19.96;99596.09;4931599;29;20898;-77
2022/08/11 09:34:43;;;;;;;2.70;2.10;;;;;;;33.36;20.34;99588.66;4928755;29;20959;-77
2022/08/11 09:45:24;;;;;;;3.37;2.07;;;;;;;33.69;19.50;99587.81;4930961;29;20672;-77
2022/08/11 09:47:50;;;;;;;1.93;1.80;;;;;;;33.66;19.33;99593.75;4932620;29;20571;-78
2022/08/11 09:50:16;;;;;;;2.40;1.60;;;;;;;33.64;19.00;99585.00;4935461;29;20222;-77
2022/08/11 09:52:44;;;;;;;2.60;2.40;;;;;;;33.66;18.93;99588.31;4931740;29;20325;-77
2022/08/11 09:55:13;;;;;;;3.80;2.40;;;;;;;33.62;19.06;99579.00;4930698;29;20314;-78
2022/08/11 10:00:29;;;;;;;2.20;2.00;;;;;;;33.79;19.10;99572.72;4933448;29;20229;-78
2022/08/11 10:02:55;;;;;;;5.60;2.20;;;;;;;33.88;18.96;99565.75;4932182;29;20986;-78
2022/08/11 10:08:10;;;;;;;5.33;2.10;;;;;;;34.14;18.75;99567.75;4933452;29;20858;-78
2022/08/11 10:10:38;;;;;;;3.30;1.90;;;;;;;34.33;18.37;99567.44;4935322;29;21439;-78
2022/08/11 10:13:07;;;;;;;4.80;2.47;;;;;;;34.43;18.37;99564.84;4932736;29;20466;-78
2022/08/11 10:15:37;;;;;;;2.60;2.00;;;;;;;34.55;18.51;99567.41;4930247;29;20473;-77
2022/08/11 10:21:08;;;;;;;4.63;1.90;;;;;;;34.77;18.25;99567.41;4932797;29;21647;-78
2022/08/11 10:33:58;;;;;;;2.23;2.03;;;;;;;34.29;17.60;99566.28;4931075;29;20485;-78
2022/08/11 10:34:40;;;;;;;2.53;2.13;;;;;;;34.43;18.01;99548.47;4932615;29;20467;-77
2022/08/11 10:37:07;;;;;;;1.97;1.77;;;;;;;34.64;17.88;99548.72;4932455;29;20470;-78
2022/08/11 10:39:34;;;;;;;2.53;2.33;;;;;;;34.81;17.91;99543.97;4933643;29;20841;-78
2022/08/11 10:44:51;;;;;;;2.77;2.27;;;;;;;35.03;17.45;99547.44;4934385;29;20469;-78
2022/08/11 10:47:35;;;;;;;2.23;1.93;;;;;;;35.00;17.61;99550.69;4928306;29;20957;-77
2022/08/11 11:01:05;;;;;;;1.80;1.63;;;;;;;35.11;16.94;99537.16;4930889;29;21142;-78
2022/08/11 11:03:35;;;;;;;3.57;2.00;;;;;;;35.06;17.08;99528.91;4928524;29;20473;-78
2022/08/11 11:06:26;;;;;;;3.43;2.13;;;;;;;34.86;16.80;99527.63;4932333;29;20540;-77
2022/08/11 11:09:04;;;;;;;2.10;2.00;;;;;;;34.70;17.24;99521.22;4933587;29;20464;-78
2022/08/11 11:19:57;;;;;;;6.67;2.17;;;;;;;34.45;16.90;99526.38;4931973;29;20463;-77
2022/08/11 11:22:39;;;;;;;2.67;2.47;;;;;;;34.22;17.18;99525.59;4957828;23;20803;-81
2022/08/11 11:25:04;;;;;;;2.40;2.20;;;;;;;34.06;17.28;99510.97;4957894;28;20874;-81
2022/08/11 11:27:51;;;;;;;2.40;2.20;;;;;;;33.84;17.44;99518.28;4965498;28;20473;-81
2022/08/11 11:30:17;;;;;;;1.80;1.70;;;;;;;33.70;17.31;99507.75;4963452;28;20201;-81
2022/08/11 11:32:54;;;;;;;2.27;2.03;;;;;;;33.60;17.32;99507.63;4963879;28;20476;-82
2022/08/11 11:35:42;;;;;;;2.20;1.90;;;;;;;33.56;17.22;99506.47;4964886;28;20503;-82
2022/08/11 11:38:08;;;;;;;2.03;1.93;;;;;;;33.65;17.33;99499.50;4978662;28;20497;-80
2022/08/11 11:40:36;;;;;;;2.47;1.77;;;;;;;33.74;17.18;99504.53;4965887;28;20859;-82
2022/08/11 11:43:02;;;;;;;2.00;1.80;;;;;;;33.70;17.44;99501.47;4964464;28;20497;-80
2022/08/11 11:45:28;;;;;;;4.70;2.13;;;;;;;33.72;17.61;99502.03;4964087;28;20468;-80
2022/08/11 11:47:55;;;;;;;3.27;1.93;;;;;;;33.72;17.67;99489.25;4965072;28;20461;-82
2022/08/11 11:50:34;;;;;;;2.40;2.00;;;;;;;33.62;18.10;99489.13;4962667;28;20255;-81
2022/08/11 11:53:06;;;;;;;3.17;2.03;;;;;;;33.62;17.97;99472.78;4962055;28;20870;-82
2022/08/11 11:55:33;;;;;;;2.13;1.93;;;;;;;33.69;18.15;99473.41;4963268;28;20977;-80
2022/08/11 12:03:33;;;;;;;3.30;2.37;;;;;;;33.86;18.43;99472.53;4962002;28;20636;-81
2022/08/11 12:05:59;;;;;;;3.03;2.73;;;;;;;33.88;18.34;99467.66;4963682;28;20453;-83
2022/08/11 12:08:25;;;;;;;2.23;2.03;;;;;;;33.92;17.90;99463.34;4965239;28;20809;-82
2022/08/11 12:13:45;;;;;;;3.37;2.20;;;;;;;33.90;17.93;99457.31;4960706;28;20822;-79
2022/08/11 12:16:13;;;;;;;2.57;2.30;;;;;;;33.77;17.72;99463.16;4961175;28;20472;-79
2022/08/11 12:18:41;;;;;;;2.17;2.00;;;;;;;33.59;17.76;99462.38;4961885;28;20485;-79
2022/08/11 12:21:08;;;;;;;7.33;2.43;;;;;;;33.59;17.97;99453.38;4961663;28;20484;-79
2022/08/11 12:29:08;;;;;;;4.27;2.20;;;;;;;33.72;17.60;99445.66;4962283;28;20453;-80
2022/08/11 12:31:36;;;;;;;1.60;1.50;;;;;;;33.83;17.49;99443.06;4960737;28;20492;-80
2022/08/11 12:34:04;;;;;;;2.43;2.23;;;;;;;33.88;17.78;99432.22;4961101;28;20459;-80
2022/08/11 12:36:34;;;;;;;2.20;1.87;;;;;;;33.87;17.49;99441.50;4962225;28;20461;-80
2022/08/11 12:39:01;;;;;;;2.20;2.00;;;;;;;33.87;17.44;99438.75;4961763;28;20587;-78
2022/08/11 12:45:26;;;;;;;2.17;1.87;;;;;;;33.84;17.26;99421.03;4961020;28;20452;-79
2022/08/11 12:47:07;;;;;;;2.40;2.17;;;;;;;33.91;17.72;99418.91;4962474;28;20453;-80
2022/08/11 12:52:32;;;;;;;3.77;2.30;;;;;;;33.71;17.46;99415.97;4960987;28;21024;-79
2022/08/11 12:55:05;;;;;;;1.80;1.70;;;;;;;33.52;17.34;99409.97;4961109;28;20463;-80
2022/08/11 13:06:04;;;;;;;4.10;2.30;;;;;;;33.56;17.32;99400.25;4961513;28;20607;-79
2022/08/11 13:08:36;;;;;;;3.00;2.10;;;;;;;33.60;17.08;99386.97;4960971;28;21006;-79
2022/08/11 13:13:51;;;;;;;4.50;2.10;;;;;;;33.63;16.65;99379.09;4964656;28;20465;-79
2022/08/11 13:16:17;;;;;;;1.87;1.77;;;;;;;33.60;16.80;99381.50;4964550;28;20901;-79
2022/08/11 13:18:43;;;;;;;2.13;2.03;;;;;;;33.65;16.96;99385.13;4965817;28;20825;-79
2022/08/11 13:21:10;;;;;;;1.73;1.60;;;;;;;33.75;17.34;99378.94;4978722;28;20495;-79
2022/08/11 13:23:37;;;;;;;1.77;1.53;;;;;;;33.80;16.80;99372.75;4964397;28;21040;-80
2022/08/11 13:26:03;;;;;;;2.40;2.20;;;;;;;33.68;16.77;99370.97;4979925;28;20958;-80
2022/08/11 13:28:30;;;;;;;1.80;1.70;;;;;;;33.69;16.53;99377.25;4964067;28;20453;-79
2022/08/11 13:31:10;;;;;;;2.67;1.73;;;;;;;33.69;16.80;99369.06;4965122;28;20449;-79
2022/08/11 13:33:51;;;;;;;3.90;2.10;;;;;;;33.77;16.85;99374.06;4964183;28;21213;-80
2022/08/11 13:36:24;;;;;;;2.00;1.90;;;;;;;33.85;16.44;99368.16;4964877;28;20965;-79
2022/08/11 13:38:52;;;;;;;2.83;1.70;;;;;;;33.93;16.53;99369.63;4965107;28;20503;-79
2022/08/11 13:44:03;;;;;;;1.97;1.77;;;;;;;34.00;16.43;99372.13;4965855;28;20471;-79
2022/08/11 13:46:29;;;;;;;2.50;2.20;;;;;;;34.07;16.40;99365.41;4965065;28;20450;-78
2022/08/11 13:48:56;;;;;;;2.70;2.43;;;;;;;34.13;16.39;99367.13;4965745;28;20829;-80
2022/08/11 13:51:30;;;;;;;2.63;2.03;;;;;;;34.23;16.38;99358.22;4913910;28;20575;-79
2022/08/11 13:54:21;;;;;;;1.83;1.73;;;;;;;34.05;16.24;99356.69;4963836;28;20519;-80
2022/08/11 13:56:52;;;;;;;2.97;2.00;;;;;;;33.87;15.94;99355.13;4958838;28;20941;-79
2022/08/11 13:59:21;;;;;;;2.33;1.70;;;;;;;33.91;15.94;99356.22;4963286;28;20492;-79
2022/08/11 14:01:49;;;;;;;3.63;1.67;;;;;;;33.92;16.12;99348.91;4963206;28;20488;-78
2022/08/11 14:04:23;;;;;;;2.13;1.90;;;;;;;33.98;15.99;99345.13;4963738;28;20456;-79
2022/08/11 14:06:52;;;;;;;3.03;1.70;;;;;;;34.11;15.79;99338.47;4970133;28;20472;-79
2022/08/11 14:09:25;;;;;;;2.33;2.13;;;;;;;34.14;15.86;99332.50;4962911;28;20541;-78
2022/08/11 14:14:40;;;;;;;1.70;1.60;;;;;;;34.04;15.88;99333.19;4963021;28;20449;-78
2022/08/11 14:17:07;;;;;;;3.80;2.03;;;;;;;34.08;15.92;99326.19;4963585;28;20469;-79
2022/08/11 14:19:41;;;;;;;4.03;2.50;;;;;;;34.13;15.84;99322.66;4963559;28;20461;-79
2022/08/11 14:22:06;;;;;;;3.70;1.90;;;;;;;34.11;15.32;99325.66;4962861;28;21036;-79
2022/08/11 14:24:41;;;;;;;3.20;2.27;;;;;;;34.10;15.57;99326.75;4961716;28;20489;-79
2022/08/11 14:27:08;;;;;;;1.83;1.73;;;;;;;34.10;15.48;99328.66;4961847;28;20210;-79
2022/08/11 14:29:37;;;;;;;1.97;1.87;;;;;;;34.10;15.73;99320.47;4963799;28;20499;-77
2022/08/11 14:32:07;;;;;;;3.20;2.20;;;;;;;34.12;15.78;99327.31;4961249;28;20580;-77
2022/08/11 14:34:35;;;;;;;2.27;2.10;;;;;;;34.16;15.41;99313.97;4962436;28;20876;-76
2022/08/11 14:37:04;;;;;;;2.77;1.97;;;;;;;34.18;15.35;99311.00;4962548;28;20973;-79
2022/08/11 14:39:36;;;;;;;3.87;1.70;;;;;;;34.19;15.14;99316.19;4962528;28;20528;-76
2022/08/11 14:47:42;;;;;;;1.80;1.70;;;;;;;34.15;15.46;99312.34;4961897;28;20456;-81
2022/08/11 14:50:17;;;;;;;2.23;1.90;;;;;;;34.14;15.27;99300.63;4962499;28;20453;-79
2022/08/11 14:52:49;;;;;;;4.00;1.93;;;;;;;34.11;15.31;99308.50;4960735;28;20472;-79
2022/08/11 14:58:01;;;;;;;2.40;2.20;;;;;;;34.05;15.37;99298.59;4965515;28;20476;-79
2022/08/11 15:00:27;;;;;;;2.27;1.73;;;;;;;34.16;15.23;99300.34;4964893;28;20852;-78
2022/08/11 15:03:09;;;;;;;2.83;2.10;;;;;;;34.28;15.44;99295.53;4964763;28;20963;-78
2022/08/11 15:05:47;;;;;;;2.57;2.00;;;;;;;34.22;15.16;99298.50;4967718;28;20471;-78
2022/08/11 15:08:15;;;;;;;2.00;1.80;;;;;;;34.23;15.04;99297.41;4965311;28;21038;-78
2022/08/11 15:10:41;;;;;;;2.30;2.10;;;;;;;34.28;15.08;99290.09;4965349;28;20461;-78
2022/08/11 15:13:07;;;;;;;1.70;1.60;;;;;;;34.32;14.93;99280.31;4960773;28;20469;-78
2022/08/11 15:18:34;;;;;;;2.40;2.20;;;;;;;34.23;15.07;99298.22;4926745;28;20493;-78
2022/08/11 15:37:54;;;;;;;2.10;1.90;;;;;;;34.17;15.30;99277.47;4976452;28;20563;-80
2022/08/11 15:46:18;;;;;;;2.30;2.10;;;;;;;34.11;15.42;99279.34;4977508;28;20449;-79
2022/08/11 15:48:49;;;;;;;2.37;2.17;;;;;;;33.86;15.79;99270.91;4974812;28;20469;-79
2022/08/11 15:51:26;;;;;;;2.50;1.90;;;;;;;33.83;15.78;99274.13;4972830;28;20466;-79
2022/08/11 15:53:53;;;;;;;3.00;2.23;;;;;;;33.71;15.90;99274.31;4972414;28;20495;-77
2022/08/11 15:56:22;;;;;;;2.30;2.10;;;;;;;33.79;15.79;99273.84;4974890;28;20533;-80
2022/08/11 16:04:25;;;;;;;2.00;1.90;;;;;;;33.71;15.96;99253.34;4972806;28;20479;-79
2022/08/11 16:07:04;;;;;;;2.13;1.93;;;;;;;33.50;15.95;99259.63;4971809;28;20484;-80
2022/08/11 16:09:39;;;;;;;2.83;1.83;;;;;;;33.50;16.15;99262.34;4971335;28;20442;-80
2022/08/11 16:12:09;;;;;;;2.93;2.20;;;;;;;33.60;16.12;99251.59;4971281;28;20488;-80
2022/08/11 16:17:29;;;;;;;2.13;1.93;;;;;;;33.52;16.23;99256.66;4972899;28;20546;-80
2022/08/11 16:19:56;;;;;;;2.57;2.37;;;;;;;33.34;16.22;99247.75;4972647;28;20524;-80
2022/08/11 16:22:40;;;;;;;1.80;1.70;;;;;;;33.36;16.46;99242.88;4970985;28;20500;-80
2022/08/11 16:25:08;;;;;;;3.30;1.97;;;;;;;33.45;16.28;99251.41;4971330;28;20529;-80
2022/08/11 16:27:44;;;;;;;2.70;2.30;;;;;;;33.41;16.19;99247.56;4971746;28;20489;-80
2022/08/11 16:30:10;;;;;;;2.00;1.87;;;;;;;33.34;16.48;99245.03;4971997;28;21012;-80
2022/08/11 16:32:39;;;;;;;2.30;2.10;;;;;;;33.17;16.69;99245.13;4970445;28;20469;-80
2022/08/11 16:40:58;;;;;;;3.87;2.43;;;;;;;33.14;17.02;99237.47;4979848;28;20470;-80
2022/08/11 16:49:03;;;;;;;2.77;2.47;;;;;;;32.81;17.10;99236.50;4969289;28;20551;-80
2022/08/11 16:51:29;;;;;;;3.93;2.10;;;;;;;32.79;17.01;99241.34;4972061;28;20481;-80
2022/08/11 16:53:55;;;;;;;3.27;2.20;;;;;;;32.77;17.06;99239.97;4969539;28;20459;-80
2022/08/11 16:56:29;;;;;;;2.37;1.93;;;;;;;32.84;17.23;99233.28;4971020;28;21064;-80
2022/08/11 16:59:14;;;;;;;1.93;1.83;;;;;;;32.79;17.27;99232.38;4970865;28;20233;-79
2022/08/11 17:01:42;;;;;;;2.17;1.97;;;;;;;32.81;17.18;99241.94;4970542;28;20499;-80
2022/08/11 17:18:06;;;;;;;3.23;2.17;;;;;;;32.46;18.10;99231.38;4970624;28;20488;-80